sensor_id;sensor_type;location;lat;lon;timestamp;temperature;humidity
78463;SHT31;67756;51.982;5.648;2023-12-20T00:01:46;9.6;73.7
78463;SHT31;67756;51.982;5.648;2023-12-20T00:04:16;9.6;74.1
78463;SHT31;67756;51.982;5.648;2023-12-20T00:06:44;9.6;73.9
78463;SHT31;67756;51.982;5.648;2023-12-20T00:09:13;9.6;73.8
78463;SHT31;67756;51.982;5.648;2023-12-20T00:11:41;9.6;73.8
78463;SHT31;67756;51.982;5.648;2023-12-20T00:14:10;9.7;73.0
78463;SHT31;67756;51.982;5.648;2023-12-20T00:16:38;9.7;72.9
78463;SHT31;67756;51.982;5.648;2023-12-20T00:19:07;9.6;72.7
78463;SHT31;67756;51.982;5.648;2023-12-20T00:21:36;9.6;72.6
78463;SHT31;67756;51.982;5.648;2023-12-20T00:24:05;9.6;72.7
78463;SHT31;67756;51.982;5.648;2023-12-20T00:26:34;9.6;72.7
78463;SHT31;67756;51.982;5.648;2023-12-20T00:29:02;9.5;72.6
78463;SHT31;67756;51.982;5.648;2023-12-20T00:31:31;9.5;72.5
78463;SHT31;67756;51.982;5.648;2023-12-20T00:33:59;9.4;72.4
78463;SHT31;67756;51.982;5.648;2023-12-20T00:36:28;9.4;72.3
78463;SHT31;67756;51.982;5.648;2023-12-20T00:38:56;9.4;72.3
78463;SHT31;67756;51.982;5.648;2023-12-20T00:41:25;9.3;73.1
78463;SHT31;67756;51.982;5.648;2023-12-20T00:43:53;9.3;73.0
78463;SHT31;67756;51.982;5.648;2023-12-20T00:46:22;9.3;73.2
78463;SHT31;67756;51.982;5.648;2023-12-20T00:48:51;9.2;73.6
78463;SHT31;67756;51.982;5.648;2023-12-20T00:51:20;9.2;73.0
78463;SHT31;67756;51.982;5.648;2023-12-20T00:53:49;9.2;73.2
78463;SHT31;67756;51.982;5.648;2023-12-20T00:56:21;9.2;73.5
78463;SHT31;67756;51.982;5.648;2023-12-20T00:58:50;9.1;73.3
78463;SHT31;67756;51.982;5.648;2023-12-20T01:01:18;9.1;74.0
78463;SHT31;67756;51.982;5.648;2023-12-20T01:03:48;9.1;74.0
78463;SHT31;67756;51.982;5.648;2023-12-20T01:06:17;9.1;74.2
78463;SHT31;67756;51.982;5.648;2023-12-20T01:08:46;9.1;74.0
78463;SHT31;67756;51.982;5.648;2023-12-20T01:11:16;9.2;73.8
78463;SHT31;67756;51.982;5.648;2023-12-20T01:13:46;9.2;73.5
78463;SHT31;67756;51.982;5.648;2023-12-20T01:16:15;9.3;72.9
78463;SHT31;67756;51.982;5.648;2023-12-20T01:18:45;9.2;72.0
78463;SHT31;67756;51.982;5.648;2023-12-20T01:21:16;9.2;72.4
78463;SHT31;67756;51.982;5.648;2023-12-20T01:23:44;9.2;72.5
78463;SHT31;67756;51.982;5.648;2023-12-20T01:26:13;9.2;72.4
78463;SHT31;67756;51.982;5.648;2023-12-20T01:28:43;9.1;72.4
78463;SHT31;67756;51.982;5.648;2023-12-20T01:31:11;9.1;72.5
78463;SHT31;67756;51.982;5.648;2023-12-20T01:33:40;9.0;72.8
78463;SHT31;67756;51.982;5.648;2023-12-20T01:36:08;8.9;72.7
78463;SHT31;67756;51.982;5.648;2023-12-20T01:38:37;8.9;73.0
78463;SHT31;67756;51.982;5.648;2023-12-20T01:41:06;8.9;73.0
78463;SHT31;67756;51.982;5.648;2023-12-20T01:43:37;8.8;72.9
78463;SHT31;67756;51.982;5.648;2023-12-20T01:46:05;8.7;73.3
78463;SHT31;67756;51.982;5.648;2023-12-20T01:48:37;8.7;74.2
78463;SHT31;67756;51.982;5.648;2023-12-20T01:51:06;8.6;73.8
78463;SHT31;67756;51.982;5.648;2023-12-20T01:53:35;8.6;74.0
78463;SHT31;67756;51.982;5.648;2023-12-20T01:56:04;8.6;74.4
78463;SHT31;67756;51.982;5.648;2023-12-20T01:58:33;8.6;74.7
78463;SHT31;67756;51.982;5.648;2023-12-20T02:01:02;8.5;74.9
78463;SHT31;67756;51.982;5.648;2023-12-20T02:03:31;8.5;74.7
78463;SHT31;67756;51.982;5.648;2023-12-20T02:06:03;8.5;74.8
78463;SHT31;67756;51.982;5.648;2023-12-20T02:08:31;8.5;74.9
78463;SHT31;67756;51.982;5.648;2023-12-20T02:11:00;8.5;75.3
78463;SHT31;67756;51.982;5.648;2023-12-20T02:13:30;8.5;75.4
78463;SHT31;67756;51.982;5.648;2023-12-20T02:16:01;8.5;75.6
78463;SHT31;67756;51.982;5.648;2023-12-20T02:18:30;8.5;75.4
78463;SHT31;67756;51.982;5.648;2023-12-20T02:20:59;8.5;75.3
78463;SHT31;67756;51.982;5.648;2023-12-20T02:23:28;8.5;75.3
78463;SHT31;67756;51.982;5.648;2023-12-20T02:25:56;8.6;75.0
78463;SHT31;67756;51.982;5.648;2023-12-20T02:28:25;8.6;75.6
78463;SHT31;67756;51.982;5.648;2023-12-20T02:30:53;8.6;75.7
78463;SHT31;67756;51.982;5.648;2023-12-20T02:33:22;8.6;75.3
78463;SHT31;67756;51.982;5.648;2023-12-20T02:35:50;8.6;75.0
78463;SHT31;67756;51.982;5.648;2023-12-20T02:38:19;8.6;75.3
78463;SHT31;67756;51.982;5.648;2023-12-20T02:40:48;8.6;75.3
78463;SHT31;67756;51.982;5.648;2023-12-20T02:43:16;8.7;75.5
78463;SHT31;67756;51.982;5.648;2023-12-20T02:45:45;8.6;75.6
78463;SHT31;67756;51.982;5.648;2023-12-20T02:48:13;8.6;75.8
78463;SHT31;67756;51.982;5.648;2023-12-20T02:50:42;8.6;75.7
78463;SHT31;67756;51.982;5.648;2023-12-20T02:53:11;8.6;75.5
78463;SHT31;67756;51.982;5.648;2023-12-20T02:55:39;8.6;75.6
78463;SHT31;67756;51.982;5.648;2023-12-20T02:58:08;8.6;75.5
78463;SHT31;67756;51.982;5.648;2023-12-20T03:00:36;8.5;75.2
78463;SHT31;67756;51.982;5.648;2023-12-20T03:03:05;8.5;75.9
78463;SHT31;67756;51.982;5.648;2023-12-20T03:05:36;8.5;75.8
78463;SHT31;67756;51.982;5.648;2023-12-20T03:08:05;8.4;75.5
78463;SHT31;67756;51.982;5.648;2023-12-20T03:10:34;8.4;75.5
78463;SHT31;67756;51.982;5.648;2023-12-20T03:13:04;8.4;76.1
78463;SHT31;67756;51.982;5.648;2023-12-20T03:15:33;8.3;76.2
78463;SHT31;67756;51.982;5.648;2023-12-20T03:18:03;8.3;76.4
78463;SHT31;67756;51.982;5.648;2023-12-20T03:20:31;8.3;76.6
78463;SHT31;67756;51.982;5.648;2023-12-20T03:23:00;8.3;76.4
78463;SHT31;67756;51.982;5.648;2023-12-20T03:25:29;8.3;76.5
78463;SHT31;67756;51.982;5.648;2023-12-20T03:27:57;8.4;76.8
78463;SHT31;67756;51.982;5.648;2023-12-20T03:30:26;8.4;76.9
78463;SHT31;67756;51.982;5.648;2023-12-20T03:32:55;8.5;76.6
78463;SHT31;67756;51.982;5.648;2023-12-20T03:35:23;8.5;76.4
78463;SHT31;67756;51.982;5.648;2023-12-20T03:37:52;8.5;75.8
78463;SHT31;67756;51.982;5.648;2023-12-20T03:40:20;8.6;75.8
78463;SHT31;67756;51.982;5.648;2023-12-20T03:42:49;8.6;75.8
78463;SHT31;67756;51.982;5.648;2023-12-20T03:45:17;8.6;75.5
78463;SHT31;67756;51.982;5.648;2023-12-20T03:47:46;8.6;75.7
78463;SHT31;67756;51.982;5.648;2023-12-20T03:50:15;8.7;75.6
78463;SHT31;67756;51.982;5.648;2023-12-20T03:52:44;8.8;75.3
78463;SHT31;67756;51.982;5.648;2023-12-20T03:55:13;8.8;74.8
78463;SHT31;67756;51.982;5.648;2023-12-20T03:57:41;8.9;74.5
78463;SHT31;67756;51.982;5.648;2023-12-20T04:00:13;8.9;74.2
78463;SHT31;67756;51.982;5.648;2023-12-20T04:02:42;8.9;73.8
78463;SHT31;67756;51.982;5.648;2023-12-20T04:05:11;8.9;74.0
78463;SHT31;67756;51.982;5.648;2023-12-20T04:07:40;8.9;73.5
78463;SHT31;67756;51.982;5.648;2023-12-20T04:10:09;8.8;74.0
78463;SHT31;67756;51.982;5.648;2023-12-20T04:12:39;8.8;73.9
78463;SHT31;67756;51.982;5.648;2023-12-20T04:15:08;8.8;74.5
78463;SHT31;67756;51.982;5.648;2023-12-20T04:17:38;8.8;74.6
78463;SHT31;67756;51.982;5.648;2023-12-20T04:20:07;8.8;74.8
78463;SHT31;67756;51.982;5.648;2023-12-20T04:22:36;8.7;74.8
78463;SHT31;67756;51.982;5.648;2023-12-20T04:25:05;8.7;74.8
78463;SHT31;67756;51.982;5.648;2023-12-20T04:27:34;8.7;74.8
78463;SHT31;67756;51.982;5.648;2023-12-20T04:30:03;8.7;74.9
78463;SHT31;67756;51.982;5.648;2023-12-20T04:32:32;8.7;75.3
78463;SHT31;67756;51.982;5.648;2023-12-20T04:35:00;8.7;75.6
78463;SHT31;67756;51.982;5.648;2023-12-20T04:37:29;8.8;75.3
78463;SHT31;67756;51.982;5.648;2023-12-20T04:39:57;8.8;75.2
78463;SHT31;67756;51.982;5.648;2023-12-20T04:42:26;8.9;75.0
78463;SHT31;67756;51.982;5.648;2023-12-20T04:44:55;8.9;74.8
78463;SHT31;67756;51.982;5.648;2023-12-20T04:47:23;8.9;74.5
78463;SHT31;67756;51.982;5.648;2023-12-20T04:49:52;8.9;74.4
78463;SHT31;67756;51.982;5.648;2023-12-20T04:52:20;8.9;74.5
78463;SHT31;67756;51.982;5.648;2023-12-20T04:54:49;9.0;74.4
78463;SHT31;67756;51.982;5.648;2023-12-20T04:57:17;9.0;74.5
78463;SHT31;67756;51.982;5.648;2023-12-20T04:59:46;9.0;74.5
78463;SHT31;67756;51.982;5.648;2023-12-20T05:02:14;9.0;74.5
78463;SHT31;67756;51.982;5.648;2023-12-20T05:04:43;9.0;74.2
78463;SHT31;67756;51.982;5.648;2023-12-20T05:07:12;9.0;74.2
78463;SHT31;67756;51.982;5.648;2023-12-20T05:09:41;9.0;74.2
78463;SHT31;67756;51.982;5.648;2023-12-20T05:12:10;9.0;74.3
78463;SHT31;67756;51.982;5.648;2023-12-20T05:14:38;9.0;73.8
78463;SHT31;67756;51.982;5.648;2023-12-20T05:17:07;9.0;74.0
78463;SHT31;67756;51.982;5.648;2023-12-20T05:19:35;9.0;74.3
78463;SHT31;67756;51.982;5.648;2023-12-20T05:22:04;9.1;74.4
78463;SHT31;67756;51.982;5.648;2023-12-20T05:24:34;9.1;74.3
78463;SHT31;67756;51.982;5.648;2023-12-20T05:27:03;9.1;74.4
78463;SHT31;67756;51.982;5.648;2023-12-20T05:29:32;9.1;74.1
78463;SHT31;67756;51.982;5.648;2023-12-20T05:32:00;9.1;74.1
78463;SHT31;67756;51.982;5.648;2023-12-20T05:34:31;9.2;73.6
78463;SHT31;67756;51.982;5.648;2023-12-20T05:36:59;9.2;73.7
78463;SHT31;67756;51.982;5.648;2023-12-20T05:39:28;9.2;73.7
78463;SHT31;67756;51.982;5.648;2023-12-20T05:41:57;9.2;73.7
78463;SHT31;67756;51.982;5.648;2023-12-20T05:44:28;9.3;74.1
78463;SHT31;67756;51.982;5.648;2023-12-20T05:46:56;9.4;73.6
78463;SHT31;67756;51.982;5.648;2023-12-20T05:49:25;9.5;73.2
78463;SHT31;67756;51.982;5.648;2023-12-20T05:51:53;9.6;72.5
78463;SHT31;67756;51.982;5.648;2023-12-20T05:54:22;9.6;72.2
78463;SHT31;67756;51.982;5.648;2023-12-20T05:56:51;9.7;71.9
78463;SHT31;67756;51.982;5.648;2023-12-20T05:59:20;9.7;71.5
78463;SHT31;67756;51.982;5.648;2023-12-20T06:01:48;9.7;71.3
78463;SHT31;67756;51.982;5.648;2023-12-20T06:04:17;9.7;71.3
78463;SHT31;67756;51.982;5.648;2023-12-20T06:06:45;9.7;71.3
78463;SHT31;67756;51.982;5.648;2023-12-20T06:09:14;9.7;71.0
78463;SHT31;67756;51.982;5.648;2023-12-20T06:11:43;9.7;71.2
78463;SHT31;67756;51.982;5.648;2023-12-20T06:14:12;9.7;71.2
78463;SHT31;67756;51.982;5.648;2023-12-20T06:16:40;9.7;71.2
78463;SHT31;67756;51.982;5.648;2023-12-20T06:19:09;9.7;71.1
78463;SHT31;67756;51.982;5.648;2023-12-20T06:21:38;9.7;71.4
78463;SHT31;67756;51.982;5.648;2023-12-20T06:24:06;9.7;71.6
78463;SHT31;67756;51.982;5.648;2023-12-20T06:26:36;9.6;71.3
78463;SHT31;67756;51.982;5.648;2023-12-20T06:29:04;9.6;71.5
78463;SHT31;67756;51.982;5.648;2023-12-20T06:31:33;9.7;71.5
78463;SHT31;67756;51.982;5.648;2023-12-20T06:34:01;9.7;71.2
78463;SHT31;67756;51.982;5.648;2023-12-20T06:36:32;9.8;70.7
78463;SHT31;67756;51.982;5.648;2023-12-20T06:39:00;9.8;70.7
78463;SHT31;67756;51.982;5.648;2023-12-20T06:41:31;9.8;70.6
78463;SHT31;67756;51.982;5.648;2023-12-20T06:44:00;9.8;70.5
78463;SHT31;67756;51.982;5.648;2023-12-20T06:46:28;9.8;70.4
78463;SHT31;67756;51.982;5.648;2023-12-20T06:48:57;9.8;70.3
78463;SHT31;67756;51.982;5.648;2023-12-20T06:51:25;9.7;70.4
78463;SHT31;67756;51.982;5.648;2023-12-20T06:53:54;9.7;70.7
78463;SHT31;67756;51.982;5.648;2023-12-20T06:56:22;9.7;70.5
78463;SHT31;67756;51.982;5.648;2023-12-20T06:58:51;9.6;71.3
78463;SHT31;67756;51.982;5.648;2023-12-20T07:01:19;9.6;71.1
78463;SHT31;67756;51.982;5.648;2023-12-20T07:03:48;9.6;71.1
78463;SHT31;67756;51.982;5.648;2023-12-20T07:06:17;9.6;71.1
78463;SHT31;67756;51.982;5.648;2023-12-20T07:08:46;9.6;71.2
78463;SHT31;67756;51.982;5.648;2023-12-20T07:11:17;9.5;71.4
78463;SHT31;67756;51.982;5.648;2023-12-20T07:13:46;9.5;71.8
78463;SHT31;67756;51.982;5.648;2023-12-20T07:16:16;9.5;71.9
78463;SHT31;67756;51.982;5.648;2023-12-20T07:18:44;9.5;71.9
78463;SHT31;67756;51.982;5.648;2023-12-20T07:21:13;9.5;72.2
78463;SHT31;67756;51.982;5.648;2023-12-20T07:23:42;9.5;72.0
78463;SHT31;67756;51.982;5.648;2023-12-20T07:26:11;9.5;72.0
78463;SHT31;67756;51.982;5.648;2023-12-20T07:28:41;9.5;72.0
78463;SHT31;67756;51.982;5.648;2023-12-20T07:31:10;9.5;71.9
78463;SHT31;67756;51.982;5.648;2023-12-20T07:33:39;9.6;71.7
78463;SHT31;67756;51.982;5.648;2023-12-20T07:36:08;9.6;71.7
78463;SHT31;67756;51.982;5.648;2023-12-20T07:38:37;9.6;71.6
78463;SHT31;67756;51.982;5.648;2023-12-20T07:41:09;9.6;71.9
78463;SHT31;67756;51.982;5.648;2023-12-20T07:43:38;9.6;72.2
78463;SHT31;67756;51.982;5.648;2023-12-20T07:46:08;9.6;72.3
78463;SHT31;67756;51.982;5.648;2023-12-20T07:48:37;9.6;72.1
78463;SHT31;67756;51.982;5.648;2023-12-20T07:51:07;9.6;72.1
78463;SHT31;67756;51.982;5.648;2023-12-20T07:53:36;9.6;72.0
78463;SHT31;67756;51.982;5.648;2023-12-20T07:56:15;9.7;71.9
78463;SHT31;67756;51.982;5.648;2023-12-20T07:58:44;9.7;71.7
78463;SHT31;67756;51.982;5.648;2023-12-20T08:01:16;9.7;71.6
78463;SHT31;67756;51.982;5.648;2023-12-20T08:03:46;9.7;71.3
78463;SHT31;67756;51.982;5.648;2023-12-20T08:06:14;9.8;71.4
78463;SHT31;67756;51.982;5.648;2023-12-20T08:08:43;9.8;71.4
78463;SHT31;67756;51.982;5.648;2023-12-20T08:11:12;9.8;71.2
78463;SHT31;67756;51.982;5.648;2023-12-20T08:13:40;9.8;71.1
78463;SHT31;67756;51.982;5.648;2023-12-20T08:16:09;9.8;71.3
78463;SHT31;67756;51.982;5.648;2023-12-20T08:18:39;9.8;71.5
78463;SHT31;67756;51.982;5.648;2023-12-20T08:21:08;9.8;71.3
78463;SHT31;67756;51.982;5.648;2023-12-20T08:23:38;9.8;71.3
78463;SHT31;67756;51.982;5.648;2023-12-20T08:26:07;9.8;71.5
78463;SHT31;67756;51.982;5.648;2023-12-20T08:28:36;9.9;71.1
78463;SHT31;67756;51.982;5.648;2023-12-20T08:31:06;9.9;71.0
78463;SHT31;67756;51.982;5.648;2023-12-20T08:33:34;10.0;70.6
78463;SHT31;67756;51.982;5.648;2023-12-20T08:36:03;10.0;70.6
78463;SHT31;67756;51.982;5.648;2023-12-20T08:38:32;10.0;70.7
78463;SHT31;67756;51.982;5.648;2023-12-20T08:41:00;10.0;70.3
78463;SHT31;67756;51.982;5.648;2023-12-20T08:43:32;10.0;70.4
78463;SHT31;67756;51.982;5.648;2023-12-20T08:46:00;10.0;70.6
78463;SHT31;67756;51.982;5.648;2023-12-20T08:48:30;10.0;70.6
78463;SHT31;67756;51.982;5.648;2023-12-20T08:50:58;10.0;70.6
78463;SHT31;67756;51.982;5.648;2023-12-20T08:53:27;10.0;70.6
78463;SHT31;67756;51.982;5.648;2023-12-20T08:55:55;10.0;70.6
78463;SHT31;67756;51.982;5.648;2023-12-20T08:58:27;10.0;70.9
78463;SHT31;67756;51.982;5.648;2023-12-20T09:00:56;10.1;71.2
78463;SHT31;67756;51.982;5.648;2023-12-20T09:03:25;10.0;71.0
78463;SHT31;67756;51.982;5.648;2023-12-20T09:05:54;10.0;71.4
78463;SHT31;67756;51.982;5.648;2023-12-20T09:08:23;10.1;71.4
78463;SHT31;67756;51.982;5.648;2023-12-20T09:10:52;10.1;71.9
78463;SHT31;67756;51.982;5.648;2023-12-20T09:13:21;10.1;72.3
78463;SHT31;67756;51.982;5.648;2023-12-20T09:15:54;10.1;72.2
78463;SHT31;67756;51.982;5.648;2023-12-20T09:18:23;10.1;72.7
78463;SHT31;67756;51.982;5.648;2023-12-20T09:20:53;10.1;72.8
78463;SHT31;67756;51.982;5.648;2023-12-20T09:23:21;10.1;72.6
78463;SHT31;67756;51.982;5.648;2023-12-20T09:25:50;10.1;72.2
78463;SHT31;67756;51.982;5.648;2023-12-20T09:28:19;10.1;72.2
78463;SHT31;67756;51.982;5.648;2023-12-20T09:30:49;10.0;73.0
78463;SHT31;67756;51.982;5.648;2023-12-20T09:33:18;10.0;73.4
78463;SHT31;67756;51.982;5.648;2023-12-20T09:35:46;9.9;73.3
78463;SHT31;67756;51.982;5.648;2023-12-20T09:38:15;9.9;73.7
78463;SHT31;67756;51.982;5.648;2023-12-20T09:40:44;9.8;73.8
78463;SHT31;67756;51.982;5.648;2023-12-20T09:43:14;9.8;73.9
78463;SHT31;67756;51.982;5.648;2023-12-20T09:45:46;9.7;74.0
78463;SHT31;67756;51.982;5.648;2023-12-20T09:48:18;9.7;74.4
78463;SHT31;67756;51.982;5.648;2023-12-20T09:50:48;9.7;74.6
78463;SHT31;67756;51.982;5.648;2023-12-20T09:53:18;9.7;74.6
78463;SHT31;67756;51.982;5.648;2023-12-20T09:55:51;9.7;74.7
78463;SHT31;67756;51.982;5.648;2023-12-20T09:58:20;9.7;74.9
78463;SHT31;67756;51.982;5.648;2023-12-20T10:00:48;9.7;75.1
78463;SHT31;67756;51.982;5.648;2023-12-20T10:03:25;9.7;75.2
78463;SHT31;67756;51.982;5.648;2023-12-20T10:05:56;9.7;75.0
78463;SHT31;67756;51.982;5.648;2023-12-20T10:08:27;9.7;75.1
78463;SHT31;67756;51.982;5.648;2023-12-20T10:10:58;9.8;74.9
78463;SHT31;67756;51.982;5.648;2023-12-20T10:13:29;9.9;74.7
78463;SHT31;67756;51.982;5.648;2023-12-20T10:15:59;9.9;74.2
78463;SHT31;67756;51.982;5.648;2023-12-20T10:18:30;10.0;73.9
78463;SHT31;67756;51.982;5.648;2023-12-20T10:21:00;10.1;73.7
78463;SHT31;67756;51.982;5.648;2023-12-20T10:23:29;10.1;73.7
78463;SHT31;67756;51.982;5.648;2023-12-20T10:25:59;10.2;73.5
78463;SHT31;67756;51.982;5.648;2023-12-20T10:28:33;10.2;73.3
78463;SHT31;67756;51.982;5.648;2023-12-20T10:31:02;10.2;73.3
78463;SHT31;67756;51.982;5.648;2023-12-20T10:33:31;10.3;73.5
78463;SHT31;67756;51.982;5.648;2023-12-20T10:36:00;10.3;73.0
78463;SHT31;67756;51.982;5.648;2023-12-20T10:38:31;10.3;72.9
78463;SHT31;67756;51.982;5.648;2023-12-20T10:41:01;10.3;73.0
78463;SHT31;67756;51.982;5.648;2023-12-20T10:43:33;10.3;72.8
78463;SHT31;67756;51.982;5.648;2023-12-20T10:46:03;10.3;72.8
78463;SHT31;67756;51.982;5.648;2023-12-20T10:48:32;10.3;72.9
78463;SHT31;67756;51.982;5.648;2023-12-20T10:51:04;10.4;72.7
78463;SHT31;67756;51.982;5.648;2023-12-20T10:53:34;10.4;72.6
78463;SHT31;67756;51.982;5.648;2023-12-20T10:56:08;10.4;73.0
78463;SHT31;67756;51.982;5.648;2023-12-20T10:58:43;10.5;72.9
78463;SHT31;67756;51.982;5.648;2023-12-20T11:01:16;10.6;72.3
78463;SHT31;67756;51.982;5.648;2023-12-20T11:03:49;10.8;71.2
78463;SHT31;67756;51.982;5.648;2023-12-20T11:06:58;10.9;71.0
78463;SHT31;67756;51.982;5.648;2023-12-20T11:09:45;11.0;70.5
78463;SHT31;67756;51.982;5.648;2023-12-20T11:12:26;11.1;70.1
78463;SHT31;67756;51.982;5.648;2023-12-20T11:14:59;11.2;69.6
78463;SHT31;67756;51.982;5.648;2023-12-20T11:17:31;11.3;68.9
78463;SHT31;67756;51.982;5.648;2023-12-20T11:20:08;11.4;68.7
78463;SHT31;67756;51.982;5.648;2023-12-20T11:22:40;11.4;68.5
78463;SHT31;67756;51.982;5.648;2023-12-20T11:25:13;11.4;68.1
78463;SHT31;67756;51.982;5.648;2023-12-20T11:27:42;11.4;68.1
78463;SHT31;67756;51.982;5.648;2023-12-20T11:30:16;11.4;68.0
78463;SHT31;67756;51.982;5.648;2023-12-20T11:32:46;11.4;68.4
78463;SHT31;67756;51.982;5.648;2023-12-20T11:35:20;11.4;68.4
78463;SHT31;67756;51.982;5.648;2023-12-20T11:37:53;11.4;68.0
78463;SHT31;67756;51.982;5.648;2023-12-20T11:40:23;11.3;67.8
78463;SHT31;67756;51.982;5.648;2023-12-20T11:42:51;11.3;67.5
78463;SHT31;67756;51.982;5.648;2023-12-20T11:45:24;11.3;67.7
78463;SHT31;67756;51.982;5.648;2023-12-20T11:47:53;11.3;68.4
78463;SHT31;67756;51.982;5.648;2023-12-20T11:50:23;11.2;68.3
78463;SHT31;67756;51.982;5.648;2023-12-20T11:52:53;11.2;68.4
78463;SHT31;67756;51.982;5.648;2023-12-20T11:55:23;11.3;68.3
78463;SHT31;67756;51.982;5.648;2023-12-20T11:57:51;11.3;67.3
78463;SHT31;67756;51.982;5.648;2023-12-20T12:00:21;11.3;67.4
78463;SHT31;67756;51.982;5.648;2023-12-20T12:03:01;11.3;67.9
78463;SHT31;67756;51.982;5.648;2023-12-20T12:05:32;11.3;67.6
78463;SHT31;67756;51.982;5.648;2023-12-20T12:08:02;11.3;67.7
78463;SHT31;67756;51.982;5.648;2023-12-20T12:10:32;11.3;68.7
78463;SHT31;67756;51.982;5.648;2023-12-20T12:13:01;11.3;68.7
78463;SHT31;67756;51.982;5.648;2023-12-20T12:15:30;11.4;68.5
78463;SHT31;67756;51.982;5.648;2023-12-20T12:17:58;11.4;68.9
78463;SHT31;67756;51.982;5.648;2023-12-20T12:20:28;11.4;68.8
78463;SHT31;67756;51.982;5.648;2023-12-20T12:23:01;11.5;68.8
78463;SHT31;67756;51.982;5.648;2023-12-20T12:25:31;11.5;68.3
78463;SHT31;67756;51.982;5.648;2023-12-20T12:28:00;11.6;68.0
78463;SHT31;67756;51.982;5.648;2023-12-20T12:30:29;11.6;67.9
78463;SHT31;67756;51.982;5.648;2023-12-20T12:32:58;11.6;68.5
78463;SHT31;67756;51.982;5.648;2023-12-20T12:35:26;11.6;68.0
78463;SHT31;67756;51.982;5.648;2023-12-20T12:37:55;11.6;68.1
78463;SHT31;67756;51.982;5.648;2023-12-20T12:40:23;11.5;67.8
78463;SHT31;67756;51.982;5.648;2023-12-20T12:42:52;11.5;68.3
78463;SHT31;67756;51.982;5.648;2023-12-20T12:45:20;11.5;68.7
78463;SHT31;67756;51.982;5.648;2023-12-20T12:47:49;11.4;68.7
78463;SHT31;67756;51.982;5.648;2023-12-20T12:50:19;11.4;69.1
78463;SHT31;67756;51.982;5.648;2023-12-20T12:52:48;11.3;69.2
78463;SHT31;67756;51.982;5.648;2023-12-20T12:55:17;11.3;69.8
78463;SHT31;67756;51.982;5.648;2023-12-20T12:57:45;11.3;69.7
78463;SHT31;67756;51.982;5.648;2023-12-20T13:00:14;11.3;69.8
78463;SHT31;67756;51.982;5.648;2023-12-20T13:02:43;11.3;69.4
78463;SHT31;67756;51.982;5.648;2023-12-20T13:05:12;11.3;68.8
78463;SHT31;67756;51.982;5.648;2023-12-20T13:07:40;11.3;68.8
78463;SHT31;67756;51.982;5.648;2023-12-20T13:10:11;11.3;68.8
78463;SHT31;67756;51.982;5.648;2023-12-20T13:12:42;11.3;69.2
78463;SHT31;67756;51.982;5.648;2023-12-20T13:15:11;11.3;69.5
78463;SHT31;67756;51.982;5.648;2023-12-20T13:17:40;11.3;69.7
78463;SHT31;67756;51.982;5.648;2023-12-20T13:20:11;11.3;69.4
78463;SHT31;67756;51.982;5.648;2023-12-20T13:22:40;11.3;69.1
78463;SHT31;67756;51.982;5.648;2023-12-20T13:25:09;11.3;69.1
78463;SHT31;67756;51.982;5.648;2023-12-20T13:27:37;11.4;69.0
78463;SHT31;67756;51.982;5.648;2023-12-20T13:30:07;11.4;68.7
78463;SHT31;67756;51.982;5.648;2023-12-20T13:32:35;11.4;68.3
78463;SHT31;67756;51.982;5.648;2023-12-20T13:35:04;11.4;68.3
78463;SHT31;67756;51.982;5.648;2023-12-20T13:37:34;11.4;68.4
78463;SHT31;67756;51.982;5.648;2023-12-20T13:40:03;11.4;68.6
78463;SHT31;67756;51.982;5.648;2023-12-20T13:42:32;11.3;68.6
78463;SHT31;67756;51.982;5.648;2023-12-20T13:45:01;11.3;68.1
78463;SHT31;67756;51.982;5.648;2023-12-20T13:47:31;11.3;68.3
78463;SHT31;67756;51.982;5.648;2023-12-20T13:50:00;11.3;68.9
78463;SHT31;67756;51.982;5.648;2023-12-20T13:52:28;11.3;68.5
78463;SHT31;67756;51.982;5.648;2023-12-20T13:54:57;11.3;68.1
78463;SHT31;67756;51.982;5.648;2023-12-20T13:57:25;11.3;68.2
78463;SHT31;67756;51.982;5.648;2023-12-20T13:59:56;11.3;68.3
78463;SHT31;67756;51.982;5.648;2023-12-20T14:02:25;11.3;68.4
78463;SHT31;67756;51.982;5.648;2023-12-20T14:04:53;11.3;68.4
78463;SHT31;67756;51.982;5.648;2023-12-20T14:07:22;11.3;67.9
78463;SHT31;67756;51.982;5.648;2023-12-20T14:09:50;11.3;68.1
78463;SHT31;67756;51.982;5.648;2023-12-20T14:12:19;11.3;68.4
78463;SHT31;67756;51.982;5.648;2023-12-20T14:14:48;11.3;68.1
78463;SHT31;67756;51.982;5.648;2023-12-20T14:17:17;11.4;68.0
78463;SHT31;67756;51.982;5.648;2023-12-20T14:19:45;11.4;67.4
78463;SHT31;67756;51.982;5.648;2023-12-20T14:22:13;11.4;67.7
78463;SHT31;67756;51.982;5.648;2023-12-20T14:24:43;11.4;67.8
78463;SHT31;67756;51.982;5.648;2023-12-20T14:27:12;11.4;67.7
78463;SHT31;67756;51.982;5.648;2023-12-20T14:29:40;11.4;67.7
78463;SHT31;67756;51.982;5.648;2023-12-20T14:32:09;11.4;67.6
78463;SHT31;67756;51.982;5.648;2023-12-20T14:34:42;11.4;67.6
78463;SHT31;67756;51.982;5.648;2023-12-20T14:37:10;11.4;67.8
78463;SHT31;67756;51.982;5.648;2023-12-20T14:39:39;11.4;68.1
78463;SHT31;67756;51.982;5.648;2023-12-20T14:42:08;11.4;68.1
78463;SHT31;67756;51.982;5.648;2023-12-20T14:44:40;11.4;68.3
78463;SHT31;67756;51.982;5.648;2023-12-20T14:47:09;11.4;68.6
78463;SHT31;67756;51.982;5.648;2023-12-20T14:49:37;11.4;68.7
78463;SHT31;67756;51.982;5.648;2023-12-20T14:52:07;11.3;68.2
78463;SHT31;67756;51.982;5.648;2023-12-20T14:54:37;11.3;68.2
78463;SHT31;67756;51.982;5.648;2023-12-20T14:57:08;11.3;68.5
78463;SHT31;67756;51.982;5.648;2023-12-20T14:59:37;11.3;69.0
78463;SHT31;67756;51.982;5.648;2023-12-20T15:02:06;11.4;68.8
78463;SHT31;67756;51.982;5.648;2023-12-20T15:04:35;11.4;68.7
78463;SHT31;67756;51.982;5.648;2023-12-20T15:07:03;11.4;68.6
78463;SHT31;67756;51.982;5.648;2023-12-20T15:09:33;11.4;68.8
78463;SHT31;67756;51.982;5.648;2023-12-20T15:12:01;11.4;68.7
78463;SHT31;67756;51.982;5.648;2023-12-20T15:14:32;11.4;68.9
78463;SHT31;67756;51.982;5.648;2023-12-20T15:17:01;11.4;69.0
78463;SHT31;67756;51.982;5.648;2023-12-20T15:19:31;11.4;68.8
78463;SHT31;67756;51.982;5.648;2023-12-20T15:22:02;11.3;69.3
78463;SHT31;67756;51.982;5.648;2023-12-20T15:24:32;11.4;69.6
78463;SHT31;67756;51.982;5.648;2023-12-20T15:27:08;11.4;69.3
78463;SHT31;67756;51.982;5.648;2023-12-20T15:29:36;11.4;69.2
78463;SHT31;67756;51.982;5.648;2023-12-20T15:32:05;11.4;69.0
78463;SHT31;67756;51.982;5.648;2023-12-20T15:34:35;11.4;69.3
78463;SHT31;67756;51.982;5.648;2023-12-20T15:37:04;11.3;69.5
78463;SHT31;67756;51.982;5.648;2023-12-20T15:39:32;11.3;69.8
78463;SHT31;67756;51.982;5.648;2023-12-20T15:42:01;11.3;70.3
78463;SHT31;67756;51.982;5.648;2023-12-20T15:44:29;11.2;70.4
78463;SHT31;67756;51.982;5.648;2023-12-20T15:47:00;11.2;71.2
78463;SHT31;67756;51.982;5.648;2023-12-20T15:49:28;11.2;71.4
78463;SHT31;67756;51.982;5.648;2023-12-20T15:51:57;11.1;71.7
78463;SHT31;67756;51.982;5.648;2023-12-20T15:54:25;11.1;72.0
78463;SHT31;67756;51.982;5.648;2023-12-20T15:56:54;11.0;72.1
78463;SHT31;67756;51.982;5.648;2023-12-20T15:59:23;11.0;72.8
78463;SHT31;67756;51.982;5.648;2023-12-20T16:01:53;10.9;73.0
78463;SHT31;67756;51.982;5.648;2023-12-20T16:04:21;10.9;73.2
78463;SHT31;67756;51.982;5.648;2023-12-20T16:06:50;10.9;73.7
78463;SHT31;67756;51.982;5.648;2023-12-20T16:09:18;10.8;74.1
78463;SHT31;67756;51.982;5.648;2023-12-20T16:11:47;10.8;74.2
78463;SHT31;67756;51.982;5.648;2023-12-20T16:14:16;10.8;74.2
78463;SHT31;67756;51.982;5.648;2023-12-20T16:16:46;10.7;74.4
78463;SHT31;67756;51.982;5.648;2023-12-20T16:19:15;10.7;74.6
78463;SHT31;67756;51.982;5.648;2023-12-20T16:21:44;10.6;75.0
78463;SHT31;67756;51.982;5.648;2023-12-20T16:24:12;10.6;74.9